Time;durP1;ratioP1;P1;durP2;ratioP2;P2;SDS_P1;SDS_P2;PMS_P1;PMS_P2;Temp;Humidity;BMP_temperature;BMP_pressure;BME280_temperature;BME280_humidity;BME280_pressure;Samples;Min_cycle;Max_cycle;Signal;HPM_P1;HPM_P2
2022/03/10 00:02:21;;;;;;;4.97;3.22;;;-11.30;82.50;-12.50;100121.00;;;;4926636;28;87427;-62
2022/03/10 00:04:47;;;;;;;6.45;3.50;;;-11.30;82.70;-12.50;100129.00;;;;4915090;28;87093;-62
2022/03/10 00:07:13;;;;;;;6.35;3.50;;;-11.30;82.70;-12.50;100120.00;;;;4925768;28;87060;-63
2022/03/10 00:09:40;;;;;;;5.03;3.08;;;-11.30;82.30;-12.50;100123.00;;;;4929970;28;88648;-62
2022/03/10 00:12:08;;;;;;;5.45;3.70;;;-11.30;82.20;-12.50;100122.00;;;;4928026;28;89133;-61
2022/03/10 00:14:34;;;;;;;5.47;3.42;;;-11.30;82.20;-12.50;100122.00;;;;4925350;28;88098;-61
2022/03/10 00:17:01;;;;;;;5.65;3.45;;;-11.30;82.20;-12.50;100129.00;;;;4928029;28;86949;-62
2022/03/10 00:19:27;;;;;;;8.02;3.78;;;-11.30;82.20;-12.50;100128.00;;;;4927482;28;86939;-65
2022/03/10 00:21:53;;;;;;;5.43;3.30;;;-11.30;82.20;-12.50;100130.00;;;;4929805;28;87967;-65
2022/03/10 00:24:19;;;;;;;5.45;3.80;;;-11.30;82.20;-12.60;100135.00;;;;4932654;28;87322;-65
2022/03/10 00:26:46;;;;;;;6.30;3.75;;;-11.40;82.70;-12.70;100117.00;;;;4928614;28;87116;-65
2022/03/10 00:29:13;;;;;;;6.80;3.50;;;-11.40;82.90;-12.70;100134.00;;;;4913128;28;87752;-65
2022/03/10 00:31:40;;;;;;;8.18;3.80;;;-11.50;83.20;-12.80;100134.00;;;;4927065;28;87384;-65
2022/03/10 00:34:07;;;;;;;5.72;3.80;;;-11.50;83.30;-12.80;100144.00;;;;4929719;28;88165;-65
2022/03/10 00:36:33;;;;;;;4.43;3.47;;;-11.50;83.40;-12.80;100129.00;;;;4929686;28;87033;-64
2022/03/10 00:38:59;;;;;;;4.93;3.40;;;-11.60;83.50;-12.80;100133.00;;;;4909253;28;88855;-65
2022/03/10 00:41:25;;;;;;;6.53;3.72;;;-11.60;83.60;-12.90;100136.00;;;;4928295;28;86999;-63
2022/03/10 00:43:52;;;;;;;7.13;3.50;;;-11.60;83.70;-12.90;100136.00;;;;4928620;28;87086;-62
2022/03/10 00:46:18;;;;;;;7.10;3.85;;;-11.60;83.90;-12.90;100133.00;;;;4912018;28;87305;-62
2022/03/10 00:48:44;;;;;;;7.00;3.50;;;-11.70;84.00;-12.90;100135.00;;;;4928190;28;87676;-62
2022/03/10 00:51:10;;;;;;;6.07;3.85;;;-11.70;83.90;-12.90;100148.00;;;;4915889;28;89590;-64
2022/03/10 00:53:36;;;;;;;5.57;3.65;;;-11.70;83.90;-12.90;100160.00;;;;4930634;28;86996;-64
2022/03/10 00:56:02;;;;;;;5.85;3.45;;;-11.60;84.00;-12.90;100137.00;;;;4929044;28;86989;-63
2022/03/10 00:58:28;;;;;;;5.85;3.45;;;-11.60;83.70;-12.80;100139.00;;;;4931504;28;88620;-64
2022/03/10 01:00:55;;;;;;;5.07;3.78;;;-11.60;83.50;-12.80;100140.00;;;;4929598;28;90154;-64
2022/03/10 01:03:21;;;;;;;5.95;3.40;;;-11.60;83.60;-12.80;100146.00;;;;4931827;28;87187;-64
2022/03/10 01:05:47;;;;;;;4.97;3.55;;;-11.60;83.60;-12.80;100165.00;;;;4929601;28;87029;-65
2022/03/10 01:08:14;;;;;;;7.43;3.55;;;-11.50;83.70;-12.80;100151.00;;;;4928759;28;87887;-64
2022/03/10 01:10:40;;;;;;;6.93;3.80;;;-11.60;84.00;-12.90;100145.00;;;;4914236;28;89864;-64
2022/03/10 01:13:16;;;;;;;5.63;3.60;;;-11.60;84.40;-12.90;100162.00;;;;4931040;28;88218;-64
2022/03/10 01:15:45;;;;;;;6.45;3.55;;;-11.60;84.20;-12.80;100151.00;;;;4928494;28;86330;-64
2022/03/10 01:18:12;;;;;;;5.95;3.35;;;-11.60;84.20;-12.80;100166.00;;;;4930900;28;87621;-64
2022/03/10 01:20:38;;;;;;;6.78;3.85;;;-11.60;83.90;-12.90;100156.00;;;;4903281;28;87327;-64
2022/03/10 01:23:04;;;;;;;5.45;3.35;;;-11.70;83.90;-13.00;100161.00;;;;4910647;28;87907;-64
2022/03/10 01:25:30;;;;;;;6.30;3.75;;;-11.70;83.90;-12.90;100166.00;;;;4908804;28;87048;-64
2022/03/10 01:27:57;;;;;;;5.95;3.40;;;-11.70;83.90;-13.00;100162.00;;;;4906855;28;88601;-65
2022/03/10 01:30:23;;;;;;;5.03;3.53;;;-11.70;84.10;-13.00;100159.00;;;;4905207;28;87431;-64
2022/03/10 01:32:50;;;;;;;4.93;3.25;;;-11.70;84.30;-13.00;100179.00;;;;4910831;28;87404;-63
2022/03/10 01:35:17;;;;;;;4.82;3.15;;;-11.70;84.40;-13.00;100172.00;;;;4912024;28;87203;-63
2022/03/10 01:37:43;;;;;;;5.30;3.38;;;-11.70;84.50;-13.00;100180.00;;;;4904915;28;87520;-63
2022/03/10 01:40:17;;;;;;;6.25;3.83;;;-11.70;85.30;-12.90;100176.00;;;;4907378;28;87174;-63
2022/03/10 01:42:44;;;;;;;6.38;3.60;;;-11.60;84.70;-12.90;100168.00;;;;4893728;28;91269;-63
2022/03/10 01:45:12;;;;;;;5.68;3.25;;;-11.70;84.40;-12.80;100175.00;;;;4903855;28;86992;-63
2022/03/10 01:47:39;;;;;;;7.35;3.38;;;-11.60;84.40;-12.90;100171.00;;;;4893444;28;90936;-63
2022/03/10 01:50:08;;;;;;;4.70;3.15;;;-11.60;84.10;-12.80;100167.00;;;;4904686;28;89237;-64
2022/03/10 01:52:34;;;;;;;5.53;3.47;;;-11.60;83.90;-12.90;100171.00;;;;4906299;28;87344;-63
2022/03/10 01:55:02;;;;;;;4.75;3.20;;;-11.70;85.00;-12.90;100174.00;;;;4906362;28;87000;-64
2022/03/10 01:57:29;;;;;;;5.85;3.30;;;-11.70;83.90;-13.00;100192.00;;;;4905379;28;88281;-63
2022/03/10 01:59:55;;;;;;;6.80;3.33;;;-11.70;84.00;-13.00;100183.00;;;;4888509;28;87151;-64
2022/03/10 02:02:21;;;;;;;5.28;3.30;;;-11.70;84.40;-13.00;100187.00;;;;4902623;28;86870;-65
2022/03/10 02:04:47;;;;;;;5.28;3.30;;;-11.80;84.70;-13.10;100186.00;;;;4904422;28;86341;-64
2022/03/10 02:10:17;;;;;;;6.22;3.65;;;-11.80;85.10;-13.00;100187.00;;;;4902898;28;87515;-66
2022/03/10 02:12:55;;;;;;;6.07;3.58;;;-11.80;84.90;-13.00;100180.00;;;;4901765;28;87904;-65
2022/03/10 02:18:13;;;;;;;5.18;3.40;;;-11.80;84.90;-13.10;100193.00;;;;4904813;28;88275;-64
2022/03/10 02:20:40;;;;;;;5.80;3.42;;;-11.80;85.50;-13.10;100203.00;;;;4897922;28;87935;-65
2022/03/10 02:23:10;;;;;;;7.82;3.67;;;-11.90;85.40;-13.20;100217.00;;;;4905641;28;87017;-65
2022/03/10 02:25:37;;;;;;;6.57;3.70;;;-11.90;85.70;-13.20;100219.00;;;;4909227;28;87459;-64
2022/03/10 02:28:04;;;;;;;5.10;3.47;;;-11.90;85.80;-13.20;100224.00;;;;4907278;28;87685;-65
2022/03/10 02:30:32;;;;;;;5.35;3.70;;;-11.90;85.80;-13.10;100217.00;;;;4910840;28;87398;-65
2022/03/10 02:32:59;;;;;;;7.35;4.05;;;-11.80;85.60;-13.10;100212.00;;;;4877411;28;86978;-62
2022/03/10 02:35:27;;;;;;;4.70;3.60;;;-11.90;85.60;-13.20;100231.00;;;;4887895;28;87025;-63
2022/03/10 02:37:53;;;;;;;6.55;3.83;;;-11.90;86.10;-13.20;100221.00;;;;4906048;28;89354;-62
2022/03/10 02:40:20;;;;;;;6.13;3.65;;;-11.90;86.00;-13.30;100216.00;;;;4903329;28;88323;-62
2022/03/10 02:42:46;;;;;;;5.63;3.92;;;-12.00;86.10;-13.30;100227.00;;;;4902887;28;88124;-62
2022/03/10 02:45:12;;;;;;;8.05;4.35;;;-12.00;86.40;-13.30;100218.00;;;;4904688;28;87693;-62
2022/03/10 02:47:38;;;;;;;6.75;4.07;;;-12.00;86.60;-13.30;100225.00;;;;4902837;28;88315;-62
2022/03/10 02:50:07;;;;;;;7.10;4.18;;;-12.00;86.60;-13.30;100229.00;;;;4902881;28;87197;-62
2022/03/10 02:52:37;;;;;;;7.20;4.30;;;-12.10;86.60;-13.30;100221.00;;;;4906575;28;87165;-62
2022/03/10 02:55:06;;;;;;;6.18;2.60;;;-12.10;86.50;-13.30;100229.00;;;;4900015;28;86414;-63
2022/03/10 02:57:33;;;;;;;6.45;4.07;;;-12.10;86.50;-13.30;100224.00;;;;4899986;28;91665;-62
2022/03/10 03:00:00;;;;;;;6.18;4.18;;;-12.00;86.60;-13.30;100235.00;;;;4906279;28;88913;-61
2022/03/10 03:02:27;;;;;;;7.28;4.00;;;-12.10;86.50;-13.30;100224.00;;;;4887783;28;88275;-61
2022/03/10 03:04:54;;;;;;;7.40;3.28;;;-12.10;86.60;-13.40;100234.00;;;;4906652;28;86974;-61
2022/03/10 03:07:20;;;;;;;5.82;4.05;;;-12.10;86.50;-13.40;100222.00;;;;4905502;28;87652;-61
2022/03/10 03:09:46;;;;;;;5.00;2.00;;;-12.10;86.50;-13.40;100237.00;;;;4907792;28;87441;-62
2022/03/10 03:12:12;;;;;;;5.82;4.07;;;-12.10;86.60;-13.40;100226.00;;;;4907888;28;87045;-62
2022/03/10 03:14:39;;;;;;;5.25;2.38;;;-12.10;86.80;-13.40;100229.00;;;;4908832;28;88187;-62
2022/03/10 03:17:05;;;;;;;7.78;2.83;;;-12.20;87.20;-13.50;100233.00;;;;4910045;28;87707;-62
2022/03/10 03:19:31;;;;;;;6.30;4.43;;;-12.20;87.50;-13.50;100238.00;;;;4916435;28;88220;-62
2022/03/10 03:21:57;;;;;;;4.15;1.77;;;-12.20;87.90;-13.50;100245.00;;;;4919696;28;87338;-63
2022/03/10 03:24:23;;;;;;;5.97;2.17;;;-12.20;87.90;-13.50;100250.00;;;;4919291;28;86995;-63
2022/03/10 03:26:49;;;;;;;4.25;1.90;;;-12.20;87.80;-13.50;100251.00;;;;4920659;28;89592;-62
2022/03/10 03:29:16;;;;;;;6.25;4.20;;;-12.20;87.60;-13.50;100245.00;;;;4888854;28;89244;-62
2022/03/10 03:31:42;;;;;;;6.15;3.83;;;-12.30;87.70;-13.50;100245.00;;;;4926907;28;87035;-62
2022/03/10 03:34:11;;;;;;;5.20;3.80;;;-12.30;87.80;-13.60;100253.00;;;;4906931;28;87088;-63
2022/03/10 03:36:39;;;;;;;6.22;3.95;;;-12.30;88.10;-13.60;100253.00;;;;4925779;28;87725;-63
2022/03/10 03:39:06;;;;;;;7.25;4.30;;;-12.30;88.00;-13.60;100255.00;;;;4922398;28;88142;-62
2022/03/10 03:41:32;;;;;;;6.40;4.07;;;-12.30;88.00;-13.60;100261.00;;;;4917307;28;87007;-63
2022/03/10 03:43:58;;;;;;;4.95;2.17;;;-12.30;88.20;-13.60;100267.00;;;;4922891;28;86356;-63
2022/03/10 03:46:25;;;;;;;7.93;4.30;;;-12.30;88.30;-13.70;100269.00;;;;4920202;28;87912;-63
2022/03/10 03:48:51;;;;;;;7.03;3.85;;;-12.30;88.20;-13.60;100265.00;;;;4922299;28;87187;-62
2022/03/10 03:51:17;;;;;;;2.72;1.85;;;-12.30;87.80;-13.60;100272.00;;;;4928260;28;87869;-63
2022/03/10 03:53:43;;;;;;;5.00;2.13;;;-12.30;87.70;-13.60;100269.00;;;;4926442;28;86964;-63
2022/03/10 03:56:09;;;;;;;6.80;1.88;;;-12.30;87.50;-13.50;100257.00;;;;4887796;28;89858;-62
2022/03/10 03:58:35;;;;;;;8.02;3.97;;;-12.30;87.20;-13.50;100272.00;;;;4923533;28;87306;-63
2022/03/10 04:01:01;;;;;;;8.40;4.20;;;-12.20;87.30;-13.50;100285.00;;;;4910707;28;87131;-62
2022/03/10 04:03:28;;;;;;;4.82;1.90;;;-12.20;87.30;-13.50;100271.00;;;;4924646;28;87305;-63
2022/03/10 04:05:54;;;;;;;7.90;4.60;;;-12.30;87.30;-13.30;100283.00;;;;4922278;28;87553;-63
2022/03/10 04:08:21;;;;;;;6.85;4.40;;;-12.20;87.10;-13.10;100271.00;;;;4923816;28;87196;-63
2022/03/10 04:10:48;;;;;;;6.45;4.35;;;-12.10;86.70;-12.80;100278.00;;;;4922275;28;87391;-62
2022/03/10 04:13:14;;;;;;;7.60;3.97;;;-12.00;86.60;-12.60;100255.00;;;;4922508;28;87249;-62
2022/03/10 04:15:40;;;;;;;6.60;4.30;;;-11.90;86.40;-12.30;100286.00;;;;4923654;28;88735;-62
2022/03/10 04:18:06;;;;;;;9.73;4.00;;;-11.70;85.80;-12.20;100286.00;;;;4922790;28;88337;-62
2022/03/10 04:20:32;;;;;;;5.82;3.83;;;-11.70;85.00;-12.00;100274.00;;;;4925585;28;87050;-63
2022/03/10 04:22:58;;;;;;;8.35;4.63;;;-11.60;84.50;-11.90;100288.00;;;;4925805;28;87496;-61
2022/03/10 04:25:25;;;;;;;6.32;4.57;;;-11.50;84.00;-11.70;100279.00;;;;4926363;28;88211;-62
2022/03/10 04:27:53;;;;;;;7.85;4.65;;;-11.40;83.70;-11.50;100288.00;;;;4927756;28;88013;-63
2022/03/10 04:30:22;;;;;;;6.35;4.18;;;-11.30;83.40;-11.50;100285.00;;;;4930178;28;87359;-62
2022/03/10 04:32:49;;;;;;;6.13;4.05;;;-11.20;83.20;-11.40;100297.00;;;;4906873;28;86338;-62
2022/03/10 04:35:18;;;;;;;5.30;3.88;;;-11.20;82.30;-11.30;100304.00;;;;4922581;28;88201;-62
2022/03/10 04:37:49;;;;;;;7.28;4.15;;;-11.10;82.30;-11.20;100299.00;;;;4922072;28;87438;-63
2022/03/10 04:40:15;;;;;;;8.70;4.80;;;-11.00;80.90;-11.00;100309.00;;;;4921764;28;87989;-62
2022/03/10 04:42:42;;;;;;;8.15;4.53;;;-10.90;81.10;-10.90;100302.00;;;;4911458;28;87035;-62
2022/03/10 04:45:08;;;;;;;9.60;4.78;;;-10.80;80.90;-10.90;100308.00;;;;4924996;28;87721;-62
2022/03/10 04:47:36;;;;;;;7.70;4.05;;;-10.80;80.50;-10.90;100310.00;;;;4922382;28;87681;-62
2022/03/10 04:50:06;;;;;;;7.93;4.63;;;-10.80;80.30;-10.80;100305.00;;;;4924628;28;86962;-62
2022/03/10 04:52:33;;;;;;;9.23;4.35;;;-10.80;80.30;-10.70;100308.00;;;;4923506;28;87106;-62
2022/03/10 04:54:59;;;;;;;9.73;4.80;;;-10.80;80.10;-10.60;100307.00;;;;4924900;28;87804;-62
2022/03/10 04:57:26;;;;;;;7.05;4.07;;;-10.70;79.90;-10.70;100318.00;;;;4923836;28;87363;-61
2022/03/10 04:59:53;;;;;;;7.28;4.65;;;-10.70;79.30;-10.60;100333.00;;;;4907615;28;87591;-62
2022/03/10 05:02:19;;;;;;;8.88;4.47;;;-10.60;79.20;-10.50;100333.00;;;;4924538;28;88137;-62
2022/03/10 05:04:45;;;;;;;6.75;4.53;;;-10.60;79.00;-10.50;100336.00;;;;4926667;28;88678;-62
2022/03/10 05:07:12;;;;;;;7.32;4.28;;;-10.60;79.20;-10.60;100324.00;;;;4916347;28;89135;-62
2022/03/10 05:09:38;;;;;;;6.03;4.07;;;-10.60;78.90;-10.70;100331.00;;;;4926171;28;87321;-62
2022/03/10 05:12:05;;;;;;;7.60;4.32;;;-10.70;78.60;-11.40;100321.00;;;;4917251;28;86976;-62
2022/03/10 05:14:31;;;;;;;7.50;4.40;;;-10.80;79.20;-11.80;100331.00;;;;4923048;28;88156;-62
2022/03/10 05:16:57;;;;;;;6.80;3.97;;;-10.90;79.80;-11.90;100335.00;;;;4921762;28;87290;-62
2022/03/10 05:19:23;;;;;;;6.25;4.53;;;-11.00;80.20;-12.00;100344.00;;;;4919457;28;87554;-63
2022/03/10 05:21:50;;;;;;;9.80;4.30;;;-11.00;80.50;-12.20;100336.00;;;;4926420;28;86488;-63
2022/03/10 05:24:16;;;;;;;7.82;4.43;;;-11.10;80.60;-12.20;100338.00;;;;4923229;28;88808;-62
2022/03/10 05:26:42;;;;;;;7.60;3.97;;;-11.10;80.60;-12.10;100339.00;;;;4925512;28;88489;-64
2022/03/10 05:29:10;;;;;;;6.68;4.53;;;-11.00;80.30;-12.10;100343.00;;;;4923593;28;88958;-64
2022/03/10 05:31:36;;;;;;;6.40;3.97;;;-11.00;80.30;-12.10;100353.00;;;;4921355;28;88006;-64
2022/03/10 05:34:03;;;;;;;8.13;4.10;;;-10.90;80.50;-12.00;100351.00;;;;4921679;28;88273;-64
2022/03/10 05:36:29;;;;;;;6.43;4.07;;;-10.90;80.00;-12.00;100363.00;;;;4921827;28;87348;-64
2022/03/10 05:38:55;;;;;;;6.03;4.18;;;-10.80;80.00;-11.90;100369.00;;;;4920747;28;87074;-64
2022/03/10 05:41:21;;;;;;;8.40;3.67;;;-10.80;78.90;-11.90;100375.00;;;;4923709;28;87129;-64
2022/03/10 05:43:47;;;;;;;8.90;4.28;;;-10.70;79.30;-11.80;100379.00;;;;4922104;28;87960;-62
2022/03/10 05:46:13;;;;;;;6.65;3.80;;;-10.70;80.00;-11.80;100379.00;;;;4922000;28;87457;-65
2022/03/10 05:48:39;;;;;;;5.55;3.70;;;-10.60;79.00;-11.70;100373.00;;;;4922525;28;86879;-62
2022/03/10 05:51:06;;;;;;;7.13;4.10;;;-10.60;78.80;-11.60;100377.00;;;;4922163;28;87005;-63
2022/03/10 05:53:32;;;;;;;6.55;3.70;;;-10.50;78.80;-11.50;100374.00;;;;4908476;28;88716;-63
2022/03/10 05:55:58;;;;;;;6.70;4.07;;;-10.50;77.70;-11.50;100370.00;;;;4926646;28;88272;-64
2022/03/10 05:58:24;;;;;;;7.10;3.80;;;-10.40;77.30;-11.50;100374.00;;;;4911318;28;87085;-64
2022/03/10 06:00:50;;;;;;;7.78;3.97;;;-10.30;77.90;-11.40;100383.00;;;;4923224;28;87207;-62
2022/03/10 06:03:16;;;;;;;9.43;4.22;;;-10.30;77.70;-11.30;100406.00;;;;4916284;28;87787;-63
2022/03/10 06:05:42;;;;;;;9.13;4.25;;;-10.20;76.60;-11.30;100402.00;;;;4904564;28;88097;-64
2022/03/10 06:08:08;;;;;;;7.15;3.63;;;-10.20;76.40;-11.10;100398.00;;;;4922751;28;87033;-64
2022/03/10 06:10:34;;;;;;;7.63;3.88;;;-10.10;76.30;-11.10;100383.00;;;;4923563;28;86304;-64
2022/03/10 06:13:00;;;;;;;7.85;4.30;;;-10.00;75.60;-11.00;100391.00;;;;4930200;28;87494;-63
2022/03/10 06:15:27;;;;;;;6.85;4.47;;;-10.00;75.40;-10.90;100391.00;;;;4928273;28;87320;-63
2022/03/10 06:17:53;;;;;;;6.50;4.03;;;-9.90;75.40;-10.90;100401.00;;;;4920393;28;88334;-63
2022/03/10 06:20:19;;;;;;;8.45;4.05;;;-9.80;74.90;-10.80;100390.00;;;;4892746;28;87099;-64
2022/03/10 06:22:45;;;;;;;7.95;4.03;;;-9.80;74.50;-10.80;100422.00;;;;4910446;28;87944;-63
2022/03/10 06:25:11;;;;;;;9.23;4.00;;;-9.70;73.60;-10.70;100404.00;;;;4913112;28;87587;-63
2022/03/10 06:27:38;;;;;;;7.30;4.20;;;-9.60;74.20;-10.50;100388.00;;;;4906313;28;87997;-63
2022/03/10 06:30:05;;;;;;;5.65;3.60;;;-9.50;74.30;-10.40;100394.00;;;;4916941;28;87566;-63
2022/03/10 06:32:31;;;;;;;6.78;3.75;;;-9.30;73.60;-10.40;100410.00;;;;4903720;28;87826;-62
2022/03/10 06:34:59;;;;;;;5.30;3.50;;;-9.40;72.70;-10.30;100410.00;;;;4902815;28;87255;-63
2022/03/10 06:37:26;;;;;;;6.93;3.55;;;-9.30;72.60;-10.30;100406.00;;;;4888244;28;87134;-63
2022/03/10 06:39:53;;;;;;;7.93;3.70;;;-9.30;71.80;-10.20;100410.00;;;;4913707;28;87107;-62
2022/03/10 06:42:19;;;;;;;8.77;3.92;;;-9.20;72.80;-10.10;100396.00;;;;4889094;28;89618;-64
2022/03/10 06:44:45;;;;;;;7.22;3.33;;;-9.10;72.30;-10.00;100412.00;;;;4913282;28;88318;-62
2022/03/10 06:47:15;;;;;;;5.20;3.50;;;-9.10;71.30;-10.00;100405.00;;;;4916141;28;87042;-62
2022/03/10 06:49:41;;;;;;;6.68;3.70;;;-9.00;71.10;-9.90;100403.00;;;;4916493;28;87050;-63
2022/03/10 06:52:08;;;;;;;7.45;3.70;;;-8.90;71.50;-9.70;100412.00;;;;4917759;28;87497;-63
2022/03/10 06:54:35;;;;;;;5.22;3.15;;;-8.70;71.30;-9.60;100431.00;;;;4892496;28;87628;-62
2022/03/10 06:57:01;;;;;;;4.63;3.10;;;-8.70;70.10;-9.60;100412.00;;;;4891880;28;88118;-62
2022/03/10 06:59:27;;;;;;;3.90;2.70;;;-8.60;68.90;-9.50;100401.00;;;;4910566;28;86985;-63
2022/03/10 07:01:54;;;;;;;5.57;3.30;;;-8.60;68.90;-9.50;100409.00;;;;4920838;28;88769;-61
2022/03/10 07:04:20;;;;;;;6.20;2.83;;;-8.50;69.00;-9.40;100419.00;;;;4921266;28;87398;-62
2022/03/10 07:06:47;;;;;;;5.97;3.28;;;-8.50;68.90;-9.40;100417.00;;;;4908720;28;88006;-63
2022/03/10 07:09:13;;;;;;;5.72;3.00;;;-8.50;68.50;-9.40;100436.00;;;;4911428;28;87099;-62
2022/03/10 07:11:40;;;;;;;6.43;3.05;;;-8.40;67.90;-9.40;100435.00;;;;4913032;28;87900;-66
2022/03/10 07:14:06;;;;;;;7.18;3.05;;;-8.50;67.80;-9.40;100435.00;;;;4905518;28;87249;-62
2022/03/10 07:16:32;;;;;;;5.13;3.03;;;-8.50;66.80;-9.40;100416.00;;;;4911022;28;87439;-63
2022/03/10 07:18:58;;;;;;;7.72;3.20;;;-8.50;66.90;-9.40;100435.00;;;;4914984;28;87213;-62
2022/03/10 07:21:24;;;;;;;6.25;3.15;;;-8.50;67.10;-9.40;100419.00;;;;4906979;28;88150;-63
2022/03/10 07:23:51;;;;;;;6.97;3.10;;;-8.50;67.20;-9.30;100425.00;;;;4903043;28;87745;-62
2022/03/10 07:26:18;;;;;;;4.85;2.83;;;-8.40;67.10;-9.20;100465.00;;;;4912259;28;87008;-62
2022/03/10 07:28:44;;;;;;;6.50;2.60;;;-8.40;66.90;-9.30;100427.00;;;;4903492;28;88148;-62
2022/03/10 07:31:10;;;;;;;4.95;2.70;;;-8.40;65.40;-9.30;100421.00;;;;4908133;28;88736;-64
2022/03/10 07:33:36;;;;;;;8.25;2.60;;;-8.30;66.20;-9.20;100453.00;;;;4907052;28;87097;-64
2022/03/10 07:36:03;;;;;;;5.45;3.17;;;-8.20;66.20;-9.10;100425.00;;;;4909483;28;87006;-63
2022/03/10 07:38:29;;;;;;;9.35;3.00;;;-8.20;66.00;-9.00;100429.00;;;;4907900;28;87047;-62
2022/03/10 07:40:57;;;;;;;7.75;2.70;;;-8.10;66.30;-8.90;100438.00;;;;4905817;28;87586;-62
2022/03/10 07:43:24;;;;;;;3.97;2.70;;;-8.00;65.50;-8.80;100411.00;;;;4904347;28;88013;-62
2022/03/10 07:45:53;;;;;;;10.82;2.90;;;-7.90;65.40;-8.60;100417.00;;;;4912566;28;87010;-62
2022/03/10 07:48:21;;;;;;;6.45;2.45;;;-7.80;65.90;-8.50;100428.00;;;;4907885;28;86422;-63
2022/03/10 07:50:47;;;;;;;5.18;2.40;;;-7.70;65.00;-8.70;100422.00;;;;4904917;28;87809;-62
2022/03/10 07:53:13;;;;;;;5.80;2.58;;;-7.80;64.10;-8.50;100411.00;;;;4910127;28;87783;-63
2022/03/10 07:55:41;;;;;;;5.97;2.70;;;-7.60;64.60;-8.30;100413.00;;;;4888613;28;88008;-62
2022/03/10 07:58:07;;;;;;;3.13;2.15;;;-7.50;64.40;-8.20;100414.00;;;;4907627;28;86958;-62
2022/03/10 08:00:34;;;;;;;6.15;2.67;;;-7.40;63.40;-8.30;100431.00;;;;4905034;28;87664;-62
2022/03/10 08:03:00;;;;;;;8.27;2.88;;;-7.50;63.00;-8.30;100427.00;;;;4904832;28;87361;-61
2022/03/10 08:05:26;;;;;;;6.43;2.47;;;-7.50;62.60;-8.30;100424.00;;;;4900389;28;87036;-61
2022/03/10 08:07:52;;;;;;;4.80;2.53;;;-7.50;63.20;-8.20;100434.00;;;;4908897;28;87281;-62
2022/03/10 08:10:18;;;;;;;4.97;2.58;;;-7.30;62.80;-8.10;100414.00;;;;4909775;28;87607;-62
2022/03/10 08:12:44;;;;;;;5.82;2.22;;;-7.30;62.80;-8.00;100421.00;;;;4904337;28;87275;-61
2022/03/10 08:15:10;;;;;;;6.25;2.45;;;-7.20;62.00;-7.90;100420.00;;;;4910955;28;86937;-62
2022/03/10 08:17:37;;;;;;;6.28;2.85;;;-7.10;62.00;-7.90;100421.00;;;;4907585;28;87004;-61
2022/03/10 08:20:04;;;;;;;4.72;2.40;;;-7.10;62.00;-7.90;100428.00;;;;4918228;28;88657;-61
2022/03/10 08:22:30;;;;;;;6.60;2.90;;;-7.10;61.90;-7.80;100427.00;;;;4926598;28;88401;-62
2022/03/10 08:24:56;;;;;;;8.32;2.90;;;-7.00;62.00;-7.60;100423.00;;;;4929135;28;87010;-61
2022/03/10 08:27:22;;;;;;;6.93;2.25;;;-6.80;62.20;-7.50;100407.00;;;;4926594;28;87038;-61
2022/03/10 08:29:48;;;;;;;5.93;2.50;;;-6.70;62.30;-7.40;100417.00;;;;4918491;28;87127;-61
2022/03/10 08:32:15;;;;;;;9.35;2.65;;;-6.60;61.90;-7.60;100426.00;;;;4927668;28;87504;-63
2022/03/10 08:34:41;;;;;;;6.30;2.58;;;-6.80;60.20;-7.60;100413.00;;;;4928073;28;87335;-61
2022/03/10 08:37:07;;;;;;;5.88;2.55;;;-6.80;60.90;-7.70;100418.00;;;;4925047;28;87342;-61
2022/03/10 08:39:34;;;;;;;7.45;2.55;;;-6.80;61.00;-7.80;100431.00;;;;4926612;28;88593;-61
2022/03/10 08:42:00;;;;;;;8.90;3.63;;;-7.00;61.80;-7.80;100419.00;;;;4924453;28;88060;-61
2022/03/10 08:44:27;;;;;;;4.45;2.50;;;-7.00;61.90;-7.60;100437.00;;;;4926402;28;87968;-64
2022/03/10 08:46:54;;;;;;;8.55;2.83;;;-6.80;61.30;-7.60;100416.00;;;;4925203;28;87149;-63
2022/03/10 08:49:20;;;;;;;6.32;2.60;;;-6.80;61.50;-7.50;100421.00;;;;4928496;28;87719;-64
2022/03/10 08:51:48;;;;;;;6.45;2.35;;;-6.80;61.30;-7.50;100415.00;;;;4925567;28;87808;-64
2022/03/10 08:54:15;;;;;;;5.82;2.40;;;-6.70;61.50;-7.50;100401.00;;;;4923847;28;87141;-64
2022/03/10 08:56:42;;;;;;;6.65;2.58;;;-6.70;59.80;-7.30;100404.00;;;;4928338;28;87456;-64
2022/03/10 08:59:08;;;;;;;6.50;2.40;;;-6.50;60.90;-7.20;100397.00;;;;4921934;28;87126;-64
2022/03/10 09:01:34;;;;;;;3.53;2.45;;;-6.40;59.90;-7.00;100415.00;;;;4926808;28;88367;-64
2022/03/10 09:04:00;;;;;;;8.88;2.97;;;-6.30;60.00;-6.90;100404.00;;;;4923384;28;87058;-64
2022/03/10 09:06:26;;;;;;;7.55;2.97;;;-6.10;60.20;-6.90;100413.00;;;;4922917;28;86977;-63
2022/03/10 09:08:52;;;;;;;5.50;2.72;;;-6.10;59.50;-6.90;100398.00;;;;4922911;28;88633;-63
2022/03/10 09:11:18;;;;;;;7.88;3.35;;;-6.20;59.40;-6.90;100415.00;;;;4927307;28;88867;-63
2022/03/10 09:13:48;;;;;;;9.77;2.58;;;-6.20;59.50;-6.90;100401.00;;;;4924745;28;87058;-63
2022/03/10 09:16:21;;;;;;;5.47;2.45;;;-6.20;58.70;-6.90;100419.00;;;;4924792;28;87298;-63
2022/03/10 09:18:51;;;;;;;10.57;2.55;;;-6.20;58.80;-7.00;100433.00;;;;4908177;28;87685;-63
2022/03/10 09:21:19;;;;;;;4.57;2.70;;;-6.20;59.10;-6.90;100434.00;;;;4922978;28;87574;-63
2022/03/10 09:23:46;;;;;;;6.57;2.45;;;-6.10;59.80;-6.90;100423.00;;;;4908906;28;87057;-63
2022/03/10 09:26:12;;;;;;;4.90;2.03;;;-6.10;58.20;-6.80;100408.00;;;;4928301;28;86514;-63
2022/03/10 09:28:38;;;;;;;4.93;2.53;;;-6.10;58.00;-6.80;100424.00;;;;4924463;28;88788;-64
2022/03/10 09:31:04;;;;;;;3.65;1.98;;;-6.00;58.50;-6.70;100418.00;;;;4924871;28;87649;-63
2022/03/10 09:33:31;;;;;;;9.18;2.42;;;-6.00;56.90;-6.60;100412.00;;;;4925240;28;87937;-63
2022/03/10 09:35:57;;;;;;;5.45;2.40;;;-5.90;57.40;-6.60;100404.00;;;;4923454;28;87027;-63
2022/03/10 09:38:23;;;;;;;3.58;2.10;;;-5.90;57.40;-6.70;100409.00;;;;4924442;28;87919;-63
2022/03/10 09:40:53;;;;;;;3.83;1.95;;;-6.00;55.50;-6.70;100408.00;;;;4922183;28;87518;-63
2022/03/10 09:43:27;;;;;;;6.97;2.28;;;-6.00;55.30;-6.70;100411.00;;;;4926603;28;87712;-65
2022/03/10 09:45:54;;;;;;;4.70;2.10;;;-6.00;55.20;-6.70;100415.00;;;;4925343;28;88007;-62
2022/03/10 09:48:20;;;;;;;5.53;2.33;;;-5.90;55.90;-6.50;100404.00;;;;4907983;28;88491;-64
2022/03/10 09:50:47;;;;;;;5.90;2.80;;;-5.70;57.00;-6.30;100403.00;;;;4925334;28;87349;-63
2022/03/10 09:53:15;;;;;;;5.90;2.40;;;-5.60;57.40;-6.20;100401.00;;;;4926012;28;87611;-64
2022/03/10 09:55:42;;;;;;;5.22;2.60;;;-5.50;57.00;-6.20;100406.00;;;;4914257;28;87337;-64
2022/03/10 09:58:09;;;;;;;5.70;2.70;;;-5.50;57.80;-6.20;100404.00;;;;4921375;28;87953;-64
2022/03/10 10:00:35;;;;;;;6.78;2.70;;;-5.50;56.50;-6.10;100416.00;;;;4924531;28;88124;-64
2022/03/10 10:03:01;;;;;;;4.85;2.53;;;-5.40;56.60;-6.10;100421.00;;;;4920234;28;87104;-62
2022/03/10 10:05:34;;;;;;;6.97;3.13;;;-5.40;56.90;-6.10;100423.00;;;;4925917;28;87133;-61
2022/03/10 10:08:11;;;;;;;7.05;2.50;;;-5.40;57.60;-6.10;100401.00;;;;4926750;28;87018;-62
2022/03/10 10:10:42;;;;;;;7.10;2.30;;;-5.40;57.20;-6.00;100405.00;;;;4924846;28;87349;-63
2022/03/10 10:13:09;;;;;;;5.47;2.40;;;-5.30;56.60;-6.00;100396.00;;;;4930710;28;87042;-62
2022/03/10 10:15:39;;;;;;;5.20;2.20;;;-5.30;57.80;-5.90;100401.00;;;;4926381;28;86842;-61
2022/03/10 10:18:13;;;;;;;7.47;2.78;;;-5.20;57.00;-5.80;100394.00;;;;4925068;28;88030;-61
2022/03/10 10:20:49;;;;;;;3.95;2.42;;;-5.10;57.10;-5.80;100403.00;;;;4924968;28;87037;-62
2022/03/10 10:23:25;;;;;;;5.30;2.30;;;-5.20;57.60;-5.80;100406.00;;;;4926459;28;88076;-62
2022/03/10 10:26:03;;;;;;;4.97;2.70;;;-5.10;56.30;-5.80;100397.00;;;;4916821;28;87104;-63
2022/03/10 10:28:34;;;;;;;7.72;2.50;;;-5.10;57.40;-5.60;100384.00;;;;4928218;28;89041;-62
2022/03/10 10:31:16;;;;;;;5.22;2.40;;;-5.00;57.80;-5.70;100396.00;;;;4927431;28;87372;-62
2022/03/10 10:34:12;;;;;;;6.88;2.70;;;-5.10;56.10;-5.80;100398.00;;;;4927564;28;87154;-63
2022/03/10 10:36:41;;;;;;;6.80;2.60;;;-5.10;56.70;-5.70;100377.00;;;;4930014;28;87017;-62
2022/03/10 10:39:14;;;;;;;5.50;2.70;;;-5.00;56.80;-5.70;100392.00;;;;4927064;28;87530;-64
2022/03/10 10:41:43;;;;;;;4.65;2.38;;;-5.10;56.70;-5.90;100380.00;;;;4929274;28;88464;-62
2022/03/10 10:44:21;;;;;;;9.13;2.55;;;-5.20;56.50;-5.70;100378.00;;;;4929297;28;86887;-62